Private Wetterstation Sandau
Wetterdaten: Samstag, 14.01.2012
Datum Zeit Temp. A. Feuchte A. Luftdruck Regen Wind Richtung Richtung Taupunkt Windchill
14.01.2012 00:02 2,6 C 83 % 1018,6 hPa 0,0 l/m 14,0 km/h (3 Bft) NW 315 0,0 C -1,0 C
14.01.2012 00:07 2,6 C 83 % 1018,4 hPa 0,0 l/m 15,5 km/h (3 Bft) W 270 0,0 C -1,3 C
14.01.2012 00:12 2,6 C 83 % 1018,6 hPa 0,0 l/m 11,2 km/h (2 Bft) W-NW 292 0,0 C -0,5 C
14.01.2012 00:17 2,6 C 83 % 1018,4 hPa 0,0 l/m 11,2 km/h (2 Bft) W-NW 292 0,0 C -0,5 C
14.01.2012 00:22 2,6 C 83 % 1018,5 hPa 0,0 l/m 7,6 km/h (2 Bft) NW 315 0,0 C 0,4 C
14.01.2012 00:27 2,6 C 83 % 1018,6 hPa 0,0 l/m 8,6 km/h (2 Bft) W 270 0,0 C 0,1 C
14.01.2012 00:32 2,6 C 83 % 1018,6 hPa 0,0 l/m 16,9 km/h (3 Bft) NW 315 0,0 C -1,5 C
14.01.2012 00:37 2,6 C 84 % 1018,6 hPa 0,0 l/m 23,8 km/h (4 Bft) W 270 0,2 C -2,4 C
14.01.2012 00:42 2,5 C 84 % 1018,6 hPa 0,0 l/m 18,7 km/h (3 Bft) NW 315 0,1 C -1,9 C
14.01.2012 00:47 2,5 C 84 % 1018,6 hPa 0,0 l/m 17,3 km/h (3 Bft) W-NW 292 0,1 C -1,7 C
14.01.2012 00:52 2,5 C 84 % 1018,6 hPa 0,0 l/m 20,5 km/h (4 Bft) NW 315 0,1 C -2,2 C
14.01.2012 00:57 2,4 C 84 % 1018,7 hPa 0,0 l/m 13,3 km/h (3 Bft) N-NW 337 -0,0 C -1,2 C
14.01.2012 01:02 2,5 C 84 % 1019,0 hPa 0,0 l/m 11,5 km/h (2 Bft) NW 315 0,1 C -0,7 C
14.01.2012 01:07 2,4 C 84 % 1018,8 hPa 0,0 l/m 6,5 km/h (2 Bft) NW 315 -0,0 C 0,6 C
14.01.2012 01:12 2,4 C 84 % 1018,7 hPa 0,0 l/m 9,0 km/h (2 Bft) NW 315 -0,0 C -0,2 C
14.01.2012 01:17 2,4 C 84 % 1018,9 hPa 0,0 l/m 6,1 km/h (2 Bft) N 360 -0,0 C 0,7 C
14.01.2012 01:22 2,4 C 84 % 1018,9 hPa 0,0 l/m 8,3 km/h (2 Bft) W-NW 292 -0,0 C -0,0 C
14.01.2012 01:27 2,3 C 84 % 1019,1 hPa 0,0 l/m 7,9 km/h (2 Bft) N-NW 337 -0,1 C -0,0 C
14.01.2012 01:32 2,3 C 83 % 1018,9 hPa 0,0 l/m 9,7 km/h (2 Bft) NO 45 -0,3 C -0,5 C
14.01.2012 01:37 2,3 C 83 % 1018,9 hPa 0,0 l/m 11,5 km/h (2 Bft) N 360 -0,3 C -0,9 C
14.01.2012 01:42 2,3 C 84 % 1019,1 hPa 0,0 l/m 9,0 km/h (2 Bft) W 270 -0,1 C -0,3 C
14.01.2012 01:47 2,2 C 84 % 1019,1 hPa 0,0 l/m 4,7 km/h (1 Bft) NW 315 -0,2 C 1,0 C
14.01.2012 01:52 2,2 C 84 % 1019,1 hPa 0,0 l/m 17,3 km/h (3 Bft) NW 315 -0,2 C -2,1 C
14.01.2012 01:57 2,1 C 84 % 1019,2 hPa 0,0 l/m 24,1 km/h (4 Bft) NW 315 -0,3 C -3,1 C
14.01.2012 02:02 2,1 C 84 % 1019,2 hPa 0,0 l/m 6,8 km/h (2 Bft) N-NW 337 -0,3 C 0,1 C
14.01.2012 02:07 2,1 C 84 % 1019,2 hPa 0,0 l/m 6,8 km/h (2 Bft) W 270 -0,3 C 0,1 C
14.01.2012 02:12 2,1 C 84 % 1019,3 hPa 0,0 l/m 13,3 km/h (3 Bft) NW 315 -0,3 C -1,5 C
14.01.2012 02:17 2,1 C 84 % 1019,4 hPa 0,0 l/m 5,4 km/h (1 Bft) W-NW 292 -0,3 C 0,6 C
14.01.2012 02:22 2,1 C 84 % 1019,3 hPa 0,0 l/m 11,9 km/h (2 Bft) NW 315 -0,3 C -1,2 C
14.01.2012 02:27 2,0 C 84 % 1019,4 hPa 0,0 l/m 11,9 km/h (2 Bft) W-NW 292 -0,4 C -1,4 C
14.01.2012 02:32 1,9 C 84 % 1019,4 hPa 0,0 l/m 10,1 km/h (2 Bft) W 270 -0,5 C -1,1 C
14.01.2012 02:37 1,9 C 84 % 1019,6 hPa 0,0 l/m 5,4 km/h (1 Bft) NW 315 -0,5 C 0,4 C
14.01.2012 02:42 1,9 C 84 % 1019,5 hPa 0,0 l/m 15,8 km/h (3 Bft) NW 315 -0,5 C -2,2 C
14.01.2012 02:47 1,9 C 84 % 1019,6 hPa 0,0 l/m 2,9 km/h (1 Bft) N 360 -0,5 C 1,9 C
14.01.2012 02:52 1,9 C 84 % 1019,6 hPa 0,0 l/m 10,1 km/h (2 Bft) W-NW 292 -0,5 C -1,1 C
14.01.2012 02:57 1,9 C 84 % 1019,7 hPa 0,0 l/m 6,5 km/h (2 Bft) NW 315 -0,5 C -0,0 C
14.01.2012 03:02 1,9 C 84 % 1019,7 hPa 0,0 l/m 10,1 km/h (2 Bft) NW 315 -0,5 C -1,1 C
14.01.2012 03:07 1,9 C 84 % 1019,7 hPa 0,0 l/m 11,2 km/h (2 Bft) W 270 -0,5 C -1,3 C
14.01.2012 03:12 1,9 C 84 % 1019,9 hPa 0,0 l/m 14,4 km/h (3 Bft) NW 315 -0,5 C -2,0 C
14.01.2012 03:17 1,9 C 84 % 1019,8 hPa 0,0 l/m 8,3 km/h (2 Bft) N-NO 22 -0,5 C -0,6 C
14.01.2012 03:22 1,8 C 84 % 1020,0 hPa 0,0 l/m 14,4 km/h (3 Bft) NW 315 -0,6 C -2,1 C
14.01.2012 03:27 1,8 C 84 % 1019,9 hPa 0,0 l/m 5,0 km/h (1 Bft) NW 315 -0,6 C 0,5 C
14.01.2012 03:32 1,8 C 84 % 1020,0 hPa 0,0 l/m 6,5 km/h (2 Bft) W-NW 292 -0,6 C -0,1 C
14.01.2012 03:37 1,8 C 84 % 1020,1 hPa 0,0 l/m 13,3 km/h (3 Bft) NW 315 -0,6 C -1,9 C
14.01.2012 03:42 1,8 C 84 % 1020,1 hPa 0,0 l/m 4,7 km/h (1 Bft) N-NW 337 -0,6 C 0,6 C
14.01.2012 03:47 1,8 C 84 % 1020,3 hPa 0,0 l/m 8,3 km/h (2 Bft) W 270 -0,6 C -0,7 C
14.01.2012 03:52 1,8 C 84 % 1020,4 hPa 0,0 l/m 8,6 km/h (2 Bft) W 270 -0,6 C -0,8 C
14.01.2012 03:57 1,8 C 84 % 1020,2 hPa 0,0 l/m 18,4 km/h (3 Bft) NW 315 -0,6 C -2,7 C
14.01.2012 04:02 1,7 C 84 % 1020,3 hPa 0,0 l/m 12,2 km/h (2 Bft) NW 315 -0,7 C -1,8 C
14.01.2012 04:07 1,7 C 84 % 1020,4 hPa 0,0 l/m 9,7 km/h (2 Bft) N-NO 22 -0,7 C -1,2 C
14.01.2012 04:12 1,6 C 84 % 1020,3 hPa 0,0 l/m 9,7 km/h (2 Bft) NW 315 -0,8 C -1,3 C
14.01.2012 04:17 1,6 C 84 % 1020,4 hPa 0,0 l/m 2,9 km/h (1 Bft) N-NW 337 -0,8 C 1,6 C
14.01.2012 04:22 1,6 C 84 % 1020,3 hPa 0,0 l/m 9,0 km/h (2 Bft) N-NW 337 -0,8 C -1,1 C
14.01.2012 04:27 1,6 C 84 % 1020,3 hPa 0,0 l/m 12,2 km/h (2 Bft) NW 315 -0,8 C -1,9 C
14.01.2012 04:32 1,6 C 84 % 1020,4 hPa 0,0 l/m 0,0 km/h (0 Bft) O-NO 67 -0,8 C 1,6 C
14.01.2012 04:37 1,6 C 84 % 1020,4 hPa 0,0 l/m 16,6 km/h (3 Bft) NW 315 -0,8 C -2,7 C
14.01.2012 04:42 1,6 C 84 % 1020,4 hPa 0,0 l/m 8,6 km/h (2 Bft) NW 315 -0,8 C -1,0 C
14.01.2012 04:47 1,5 C 84 % 1020,3 hPa 0,0 l/m 14,8 km/h (3 Bft) W-NW 292 -0,9 C -2,5 C
14.01.2012 04:52 1,5 C 84 % 1020,3 hPa 0,0 l/m 7,6 km/h (2 Bft) NW 315 -0,9 C -0,9 C
14.01.2012 04:57 1,5 C 84 % 1020,3 hPa 0,0 l/m 10,8 km/h (2 Bft) W-NW 292 -0,9 C -1,7 C
14.01.2012 05:02 1,4 C 84 % 1020,2 hPa 0,0 l/m 7,6 km/h (2 Bft) NW 315 -1,0 C -1,0 C
14.01.2012 05:07 1,4 C 84 % 1020,4 hPa 0,0 l/m 9,7 km/h (2 Bft) N-NW 337 -1,0 C -1,6 C
14.01.2012 05:12 1,3 C 84 % 1020,3 hPa 0,0 l/m 10,4 km/h (2 Bft) W 270 -1,1 C -1,9 C
14.01.2012 05:17 1,3 C 84 % 1020,3 hPa 0,0 l/m 11,2 km/h (2 Bft) N-NW 337 -1,1 C -2,0 C
14.01.2012 05:22 1,3 C 84 % 1020,2 hPa 0,0 l/m 9,7 km/h (2 Bft) NW 315 -1,1 C -1,7 C
14.01.2012 05:27 1,3 C 84 % 1020,3 hPa 0,0 l/m 10,8 km/h (2 Bft) W 270 -1,1 C -2,0 C
14.01.2012 05:32 1,3 C 84 % 1020,2 hPa 0,0 l/m 9,7 km/h (2 Bft) W-NW 292 -1,1 C -1,7 C
14.01.2012 05:37 1,3 C 85 % 1020,1 hPa 0,0 l/m 8,3 km/h (2 Bft) W-NW 292 -0,9 C -1,3 C
14.01.2012 05:42 1,3 C 85 % 1020,3 hPa 0,0 l/m 11,9 km/h (2 Bft) NW 315 -0,9 C -2,2 C
14.01.2012 05:47 1,3 C 84 % 1020,1 hPa 0,0 l/m 10,1 km/h (2 Bft) W-NW 292 -1,1 C -1,8 C
14.01.2012 05:52 1,3 C 84 % 1020,3 hPa 0,0 l/m 18,4 km/h (3 Bft) W-NW 292 -1,1 C -3,4 C
14.01.2012 05:57 1,3 C 84 % 1020,4 hPa 0,0 l/m 11,2 km/h (2 Bft) NW 315 -1,1 C -2,0 C
14.01.2012 06:02 1,3 C 84 % 1020,3 hPa 0,0 l/m 14,0 km/h (3 Bft) NW 315 -1,1 C -2,6 C
14.01.2012 06:07 1,3 C 84 % 1020,4 hPa 0,0 l/m 7,6 km/h (2 Bft) W 270 -1,1 C -1,1 C
14.01.2012 06:12 1,3 C 84 % 1020,5 hPa 0,0 l/m 14,8 km/h (3 Bft) W-NW 292 -1,1 C -2,8 C
14.01.2012 06:17 1,3 C 84 % 1020,6 hPa 0,0 l/m 3,6 km/h (1 Bft) N-NW 337 -1,1 C 1,3 C
14.01.2012 06:22 1,3 C 84 % 1020,5 hPa 0,0 l/m 11,2 km/h (2 Bft) NW 315 -1,1 C -2,0 C
14.01.2012 06:27 1,3 C 84 % 1020,8 hPa 0,0 l/m 12,2 km/h (2 Bft) W 270 -1,1 C -2,3 C
14.01.2012 06:32 1,3 C 84 % 1020,8 hPa 0,0 l/m 3,2 km/h (1 Bft) N-NW 337 -1,1 C 1,3 C
14.01.2012 06:37 1,3 C 84 % 1020,8 hPa 0,0 l/m 13,7 km/h (3 Bft) N-NW 337 -1,1 C -2,6 C
14.01.2012 06:42 1,3 C 84 % 1020,7 hPa 0,0 l/m 5,8 km/h (2 Bft) N-NW 337 -1,1 C -0,5 C
14.01.2012 06:47 1,3 C 84 % 1020,8 hPa 0,0 l/m 12,6 km/h (3 Bft) N 360 -1,1 C -2,4 C
14.01.2012 06:52 1,3 C 84 % 1020,8 hPa 0,0 l/m 6,8 km/h (2 Bft) N 360 -1,1 C -0,8 C
14.01.2012 06:57 1,3 C 84 % 1021,0 hPa 0,0 l/m 12,2 km/h (2 Bft) NW 315 -1,1 C -2,3 C
14.01.2012 07:02 1,2 C 84 % 1021,0 hPa 0,0 l/m 6,5 km/h (2 Bft) SW 225 -1,2 C -0,8 C
14.01.2012 07:07 1,2 C 84 % 1020,9 hPa 0,0 l/m 5,0 km/h (1 Bft) N 360 -1,2 C -0,2 C
14.01.2012 07:12 1,2 C 84 % 1020,9 hPa 0,0 l/m 4,7 km/h (1 Bft) W-NW 292 -1,2 C -0,1 C
14.01.2012 07:17 1,1 C 84 % 1021,1 hPa 0,0 l/m 5,0 km/h (1 Bft) W-NW 292 -1,3 C -0,3 C
14.01.2012 07:22 1,1 C 84 % 1021,2 hPa 0,0 l/m 4,0 km/h (1 Bft) NW 315 -1,3 C 1,1 C
14.01.2012 07:27 1,0 C 84 % 1021,1 hPa 0,0 l/m 10,8 km/h (2 Bft) NW 315 -1,4 C -2,3 C
14.01.2012 07:32 0,9 C 84 % 1021,3 hPa 0,0 l/m 5,8 km/h (2 Bft) W 270 -1,5 C -0,9 C
14.01.2012 07:37 0,9 C 84 % 1021,2 hPa 0,0 l/m 9,0 km/h (2 Bft) W-NW 292 -1,5 C -2,0 C
14.01.2012 07:42 0,9 C 84 % 1021,3 hPa 0,0 l/m 13,7 km/h (3 Bft) W-NW 292 -1,5 C -3,1 C
14.01.2012 07:47 0,9 C 84 % 1021,5 hPa 0,0 l/m 9,7 km/h (2 Bft) W-NW 292 -1,5 C -2,2 C
14.01.2012 07:52 0,9 C 84 % 1021,3 hPa 0,0 l/m 9,0 km/h (2 Bft) NW 315 -1,5 C -2,0 C
14.01.2012 07:57 0,8 C 84 % 1021,5 hPa 0,0 l/m 9,4 km/h (2 Bft) N-NW 337 -1,6 C -2,2 C
14.01.2012 08:02 0,8 C 85 % 1021,5 hPa 0,0 l/m 7,6 km/h (2 Bft) W-NW 292 -1,4 C -1,7 C
14.01.2012 08:07 0,7 C 85 % 1021,4 hPa 0,0 l/m 8,6 km/h (2 Bft) W-NW 292 -1,5 C -2,1 C
14.01.2012 08:12 0,7 C 85 % 1021,6 hPa 0,0 l/m 9,7 km/h (2 Bft) W-NW 292 -1,5 C -2,4 C
14.01.2012 08:17 0,7 C 85 % 1021,5 hPa 0,0 l/m 6,1 km/h (2 Bft) NW 315 -1,5 C -1,3 C
14.01.2012 08:22 0,6 C 85 % 1021,6 hPa 0,0 l/m 7,6 km/h (2 Bft) W-NW 292 -1,6 C -1,9 C
14.01.2012 08:27 0,6 C 85 % 1021,5 hPa 0,0 l/m 7,2 km/h (2 Bft) NW 315 -1,6 C -1,8 C
14.01.2012 08:32 0,6 C 85 % 1021,5 hPa 0,0 l/m 5,0 km/h (1 Bft) W-NW 292 -1,6 C -0,9 C
14.01.2012 08:37 0,6 C 85 % 1021,6 hPa 0,0 l/m 5,8 km/h (2 Bft) W-NW 292 -1,6 C -1,3 C
14.01.2012 08:42 0,6 C 85 % 1021,5 hPa 0,0 l/m 8,3 km/h (2 Bft) W-NW 292 -1,6 C -2,1 C
14.01.2012 08:47 0,6 C 85 % 1021,6 hPa 0,0 l/m 5,4 km/h (1 Bft) W-NW 292 -1,6 C -1,1 C
14.01.2012 08:52 0,6 C 85 % 1021,5 hPa 0,0 l/m 6,5 km/h (2 Bft) NW 315 -1,6 C -1,5 C
14.01.2012 08:57 0,7 C 85 % 1021,8 hPa 0,0 l/m 12,6 km/h (3 Bft) W-NW 292 -1,5 C -3,1 C
14.01.2012 09:02 0,6 C 85 % 1021,6 hPa 0,0 l/m 10,4 km/h (2 Bft) W-NW 292 -1,6 C -2,7 C
14.01.2012 09:07 0,7 C 85 % 1021,8 hPa 0,0 l/m 7,9 km/h (2 Bft) N 360 -1,5 C -1,9 C
14.01.2012 09:12 0,8 C 85 % 1021,8 hPa 0,0 l/m 7,6 km/h (2 Bft) NW 315 -1,4 C -1,7 C
14.01.2012 09:17 0,8 C 85 % 1021,9 hPa 0,0 l/m 16,6 km/h (3 Bft) W-NW 292 -1,4 C -3,7 C
14.01.2012 09:22 0,8 C 85 % 1022,0 hPa 0,0 l/m 3,6 km/h (1 Bft) O 90 -1,4 C 0,8 C
14.01.2012 09:27 0,9 C 85 % 1022,1 hPa 0,0 l/m 15,8 km/h (3 Bft) NW 315 -1,3 C -3,4 C
14.01.2012 09:32 0,9 C 85 % 1022,1 hPa 0,0 l/m 5,4 km/h (1 Bft) W-NW 292 -1,3 C -0,7 C
14.01.2012 09:37 0,9 C 84 % 1022,0 hPa 0,0 l/m 5,0 km/h (1 Bft) NW 315 -1,5 C -0,6 C
14.01.2012 09:42 1,1 C 84 % 1022,1 hPa 0,0 l/m 6,1 km/h (2 Bft) NW 315 -1,3 C -0,8 C
14.01.2012 09:47 1,1 C 84 % 1022,1 hPa 0,0 l/m 4,7 km/h (1 Bft) N-NW 337 -1,3 C -0,2 C
14.01.2012 09:52 1,2 C 84 % 1022,2 hPa 0,0 l/m 12,6 km/h (3 Bft) NW 315 -1,2 C -2,5 C
14.01.2012 09:57 1,3 C 84 % 1022,3 hPa 0,0 l/m 8,3 km/h (2 Bft) W-NW 292 -1,1 C -1,3 C
14.01.2012 10:02 1,3 C 84 % 1022,3 hPa 0,0 l/m 12,6 km/h (3 Bft) N-NW 337 -1,1 C -2,4 C
14.01.2012 10:07 1,3 C 83 % 1022,1 hPa 0,0 l/m 7,9 km/h (2 Bft) N-NW 337 -1,3 C -1,2 C
14.01.2012 10:12 1,3 C 83 % 1022,3 hPa 0,0 l/m 1,4 km/h (1 Bft) W 270 -1,3 C 1,3 C
14.01.2012 10:17 1,3 C 83 % 1022,2 hPa 0,0 l/m 4,7 km/h (1 Bft) O-NO 67 -1,3 C 0,0 C
14.01.2012 10:22 1,4 C 83 % 1022,2 hPa 0,0 l/m 8,6 km/h (2 Bft) W-NW 292 -1,2 C -1,3 C
14.01.2012 10:27 1,5 C 83 % 1022,4 hPa 0,0 l/m 7,6 km/h (2 Bft) N 360 -1,1 C -0,9 C
14.01.2012 10:32 1,6 C 83 % 1022,2 hPa 0,0 l/m 13,7 km/h (3 Bft) N-NW 337 -1,0 C -2,2 C
14.01.2012 10:37 1,6 C 83 % 1022,3 hPa 0,0 l/m 6,1 km/h (2 Bft) S-SW 202 -1,0 C -0,2 C
14.01.2012 10:42 1,8 C 82 % 1022,5 hPa 0,0 l/m 4,0 km/h (1 Bft) NW 315 -0,9 C 1,8 C
14.01.2012 10:47 1,8 C 82 % 1022,5 hPa 0,0 l/m 18,0 km/h (3 Bft) W-NW 292 -0,9 C -2,7 C
14.01.2012 10:52 1,9 C 82 % 1022,5 hPa 0,0 l/m 6,8 km/h (2 Bft) W-NW 292 -0,8 C -0,1 C
14.01.2012 10:57 1,9 C 82 % 1022,5 hPa 0,0 l/m 12,2 km/h (2 Bft) N-NW 337 -0,8 C -1,5 C
14.01.2012 11:02 2,0 C 82 % 1022,4 hPa 0,0 l/m 3,2 km/h (1 Bft) O 90 -0,7 C 2,0 C
14.01.2012 11:07 2,1 C 81 % 1022,5 hPa 0,0 l/m 5,4 km/h (1 Bft) N-NO 22 -0,8 C 0,6 C
14.01.2012 11:12 2,2 C 81 % 1022,5 hPa 0,0 l/m 11,2 km/h (2 Bft) NW 315 -0,7 C -1,0 C
14.01.2012 11:17 2,3 C 81 % 1022,4 hPa 0,0 l/m 23,4 km/h (4 Bft) NW 315 -0,6 C -2,8 C
14.01.2012 11:22 2,4 C 80 % 1022,6 hPa 0,0 l/m 13,3 km/h (3 Bft) N-NW 337 -0,7 C -1,2 C
14.01.2012 11:27 2,4 C 80 % 1022,5 hPa 0,0 l/m 11,2 km/h (2 Bft) N-NW 337 -0,7 C -0,7 C
14.01.2012 11:32 2,5 C 80 % 1022,5 hPa 0,0 l/m 16,6 km/h (3 Bft) NO 45 -0,6 C -1,6 C
14.01.2012 11:37 2,6 C 80 % 1022,5 hPa 0,0 l/m 11,5 km/h (2 Bft) W-NW 292 -0,5 C -0,5 C
14.01.2012 11:42 2,7 C 80 % 1022,5 hPa 0,0 l/m 7,6 km/h (2 Bft) N 360 -0,4 C 0,6 C
14.01.2012 11:47 2,7 C 80 % 1022,4 hPa 0,0 l/m 10,1 km/h (2 Bft) N 360 -0,4 C -0,1 C
14.01.2012 11:52 2,8 C 79 % 1022,6 hPa 0,0 l/m 12,2 km/h (2 Bft) N 360 -0,5 C -0,4 C
14.01.2012 11:57 2,9 C 78 % 1022,6 hPa 0,0 l/m 11,9 km/h (2 Bft) NW 315 -0,5 C -0,3 C
14.01.2012 12:02 3,0 C 78 % 1022,5 hPa 0,0 l/m 11,5 km/h (2 Bft) NO 45 -0,5 C -0,1 C
14.01.2012 12:07 3,1 C 77 % 1022,4 hPa 0,0 l/m 6,5 km/h (2 Bft) N-NO 22 -0,5 C 1,4 C
14.01.2012 12:12 3,2 C 77 % 1022,4 hPa 0,0 l/m 11,9 km/h (2 Bft) N 360 -0,4 C 0,1 C
14.01.2012 12:17 3,2 C 77 % 1022,5 hPa 0,0 l/m 7,2 km/h (2 Bft) N-NW 337 -0,4 C 1,3 C
14.01.2012 12:22 3,3 C 77 % 1022,5 hPa 0,0 l/m 14,8 km/h (3 Bft) N 360 -0,3 C -0,3 C
14.01.2012 12:27 3,3 C 76 % 1022,5 hPa 0,0 l/m 7,2 km/h (2 Bft) W 270 -0,5 C 1,4 C
14.01.2012 12:32 3,3 C 76 % 1022,5 hPa 0,0 l/m 3,6 km/h (1 Bft) N-NO 22 -0,5 C 3,3 C
14.01.2012 12:37 3,4 C 76 % 1022,6 hPa 0,0 l/m 13,3 km/h (3 Bft) N-NO 22 -0,4 C 0,1 C
14.01.2012 12:42 3,5 C 75 % 1022,6 hPa 0,0 l/m 14,8 km/h (3 Bft) O-NO 67 -0,5 C -0,1 C
14.01.2012 12:47 3,5 C 75 % 1022,6 hPa 0,0 l/m 8,6 km/h (2 Bft) N-NW 337 -0,5 C 1,2 C
14.01.2012 12:52 3,6 C 74 % 1022,5 hPa 0,0 l/m 11,9 km/h (2 Bft) N 360 -0,6 C 0,6 C
14.01.2012 12:57 3,6 C 74 % 1022,6 hPa 0,0 l/m 10,4 km/h (2 Bft) NO 45 -0,6 C 0,9 C
14.01.2012 13:02 3,6 C 74 % 1022,6 hPa 0,0 l/m 10,8 km/h (2 Bft) N-NO 22 -0,6 C 0,8 C
14.01.2012 13:07 3,6 C 74 % 1022,6 hPa 0,0 l/m 6,8 km/h (2 Bft) NO 45 -0,6 C 1,8 C
14.01.2012 13:12 3,8 C 74 % 1022,6 hPa 0,0 l/m 7,6 km/h (2 Bft) N 360 -0,4 C 1,8 C
14.01.2012 13:17 3,8 C 73 % 1022,5 hPa 0,0 l/m 4,3 km/h (1 Bft) N 360 -0,6 C 3,8 C
14.01.2012 13:22 3,8 C 73 % 1022,5 hPa 0,0 l/m 15,8 km/h (3 Bft) N-NO 22 -0,6 C 0,1 C
14.01.2012 13:27 3,8 C 73 % 1022,5 hPa 0,0 l/m 15,5 km/h (3 Bft) N 360 -0,6 C 0,2 C
14.01.2012 13:32 3,8 C 72 % 1022,6 hPa 0,0 l/m 17,3 km/h (3 Bft) NO 45 -0,8 C -0,1 C
14.01.2012 13:37 3,9 C 72 % 1022,6 hPa 0,0 l/m 6,5 km/h (2 Bft) W-NW 292 -0,7 C 2,3 C
14.01.2012 13:42 3,9 C 72 % 1022,7 hPa 0,0 l/m 5,0 km/h (1 Bft) O-NO 67 -0,7 C 2,8 C
14.01.2012 13:47 3,9 C 72 % 1022,5 hPa 0,0 l/m 11,9 km/h (2 Bft) NO 45 -0,7 C 0,9 C
14.01.2012 13:52 3,9 C 72 % 1022,6 hPa 0,0 l/m 7,6 km/h (2 Bft) N-NW 337 -0,7 C 2,0 C
14.01.2012 13:57 3,8 C 72 % 1022,5 hPa 0,0 l/m 13,3 km/h (3 Bft) N 360 -0,8 C 0,6 C
14.01.2012 14:02 3,8 C 72 % 1022,6 hPa 0,0 l/m 6,1 km/h (2 Bft) NO 45 -0,8 C 2,3 C
14.01.2012 14:07 3,8 C 72 % 1022,5 hPa 0,0 l/m 9,0 km/h (2 Bft) NO 45 -0,8 C 1,5 C
14.01.2012 14:12 3,8 C 72 % 1022,5 hPa 0,0 l/m 10,1 km/h (2 Bft) NW 315 -0,8 C 1,2 C
14.01.2012 14:17 3,8 C 72 % 1022,5 hPa 0,0 l/m 11,2 km/h (2 Bft) N-NO 22 -0,8 C 1,0 C
14.01.2012 14:22 3,8 C 72 % 1022,6 hPa 0,0 l/m 17,3 km/h (3 Bft) NW 315 -0,8 C -0,1 C
14.01.2012 14:27 3,8 C 72 % 1022,6 hPa 0,0 l/m 3,2 km/h (1 Bft) NW 315 -0,8 C 3,8 C
14.01.2012 14:32 3,8 C 72 % 1022,7 hPa 0,0 l/m 8,3 km/h (2 Bft) W-NW 292 -0,8 C 1,6 C
14.01.2012 14:37 3,8 C 71 % 1022,7 hPa 0,0 l/m 5,8 km/h (2 Bft) N-NW 337 -1,0 C 2,4 C
14.01.2012 14:42 3,8 C 72 % 1022,8 hPa 0,0 l/m 6,1 km/h (2 Bft) W-NW 292 -0,8 C 2,3 C
14.01.2012 14:47 3,8 C 72 % 1022,7 hPa 0,0 l/m 7,6 km/h (2 Bft) W-NW 292 -0,8 C 1,8 C
14.01.2012 14:52 3,8 C 72 % 1022,8 hPa 0,0 l/m 4,0 km/h (1 Bft) NW 315 -0,8 C 3,8 C
14.01.2012 14:57 3,8 C 72 % 1022,8 hPa 0,0 l/m 2,5 km/h (1 Bft) W-SW 247 -0,8 C 3,8 C
14.01.2012 15:02 3,8 C 72 % 1022,8 hPa 0,0 l/m 6,5 km/h (2 Bft) W-NW 292 -0,8 C 2,2 C
14.01.2012 15:07 3,8 C 72 % 1022,9 hPa 0,0 l/m 5,0 km/h (1 Bft) NW 315 -0,8 C 2,7 C
14.01.2012 15:12 3,8 C 72 % 1022,8 hPa 0,0 l/m 10,4 km/h (2 Bft) N-NO 22 -0,8 C 1,1 C
14.01.2012 15:17 3,8 C 72 % 1022,9 hPa 0,0 l/m 14,4 km/h (3 Bft) SW 225 -0,8 C 0,4 C
14.01.2012 15:22 3,8 C 72 % 1022,9 hPa 0,0 l/m 3,6 km/h (1 Bft) NW 315 -0,8 C 3,8 C
14.01.2012 15:27 3,7 C 72 % 1023,1 hPa 0,0 l/m 11,9 km/h (2 Bft) N 360 -0,9 C 0,7 C
14.01.2012 15:32 3,6 C 73 % 1022,9 hPa 0,0 l/m 16,9 km/h (3 Bft) NW 315 -0,8 C -0,3 C
14.01.2012 15:37 3,6 C 73 % 1023,0 hPa 0,0 l/m 9,4 km/h (2 Bft) N-NO 22 -0,8 C 1,1 C
14.01.2012 15:42 3,5 C 73 % 1023,1 hPa 0,0 l/m 5,0 km/h (1 Bft) N-NW 337 -0,9 C 2,4 C
14.01.2012 15:47 3,5 C 74 % 1023,1 hPa 0,0 l/m 4,0 km/h (1 Bft) W-NW 292 -0,7 C 3,5 C
14.01.2012 15:52 3,3 C 74 % 1023,2 hPa 0,0 l/m 5,0 km/h (1 Bft) W-NW 292 -0,9 C 2,2 C
14.01.2012 15:57 3,3 C 75 % 1023,2 hPa 0,0 l/m 7,9 km/h (2 Bft) W 270 -0,7 C 1,2 C
14.01.2012 16:02 3,2 C 75 % 1023,2 hPa 0,0 l/m 4,7 km/h (1 Bft) NW 315 -0,8 C 2,2 C
14.01.2012 16:07 3,1 C 76 % 1023,2 hPa 0,0 l/m 6,8 km/h (2 Bft) W-NW 292 -0,7 C 1,3 C
14.01.2012 16:12 3,0 C 76 % 1023,1 hPa 0,0 l/m 6,1 km/h (2 Bft) W 270 -0,8 C 1,4 C
14.01.2012 16:17 2,9 C 76 % 1023,3 hPa 0,0 l/m 5,0 km/h (1 Bft) W-NW 292 -0,9 C 1,7 C
14.01.2012 16:22 2,9 C 76 % 1023,3 hPa 0,0 l/m 6,1 km/h (2 Bft) W-NW 292 -0,9 C 1,3 C
14.01.2012 16:27 2,8 C 76 % 1023,3 hPa 0,0 l/m 4,0 km/h (1 Bft) N-NO 22 -1,0 C 2,8 C
14.01.2012 16:32 2,8 C 76 % 1023,2 hPa 0,0 l/m 5,4 km/h (1 Bft) NW 315 -1,0 C 1,4 C
14.01.2012 16:37 2,7 C 76 % 1023,2 hPa 0,0 l/m 4,7 km/h (1 Bft) W-NW 292 -1,1 C 1,6 C
14.01.2012 16:42 2,6 C 77 % 1023,2 hPa 0,0 l/m 3,2 km/h (1 Bft) W-NW 292 -1,0 C 2,6 C
14.01.2012 16:47 2,6 C 77 % 1023,3 hPa 0,0 l/m 2,9 km/h (1 Bft) W-NW 292 -1,0 C 2,6 C
14.01.2012 16:52 2,4 C 77 % 1023,2 hPa 0,0 l/m 6,1 km/h (2 Bft) NW 315 -1,2 C 0,7 C
14.01.2012 16:57 2,4 C 78 % 1023,2 hPa 0,0 l/m 4,0 km/h (1 Bft) SW 225 -1,0 C 2,4 C
14.01.2012 17:02 2,3 C 78 % 1023,2 hPa 0,0 l/m 6,1 km/h (2 Bft) W 270 -1,1 C 0,6 C
14.01.2012 17:07 2,2 C 78 % 1023,2 hPa 0,0 l/m 6,1 km/h (2 Bft) NW 315 -1,2 C 0,5 C
14.01.2012 17:12 2,2 C 78 % 1023,2 hPa 0,0 l/m 10,1 km/h (2 Bft) NW 315 -1,2 C -0,7 C
14.01.2012 17:17 2,1 C 78 % 1023,2 hPa 0,0 l/m 16,6 km/h (3 Bft) NW 315 -1,3 C -2,1 C
14.01.2012 17:22 1,9 C 78 % 1023,2 hPa 0,0 l/m 14,4 km/h (3 Bft) W-NW 292 -1,5 C -2,0 C
14.01.2012 17:27 1,9 C 78 % 1023,2 hPa 0,0 l/m 10,1 km/h (2 Bft) W-NW 292 -1,5 C -1,1 C
14.01.2012 17:32 1,9 C 79 % 1023,0 hPa 0,0 l/m 8,3 km/h (2 Bft) W 270 -1,3 C -0,6 C
14.01.2012 17:37 1,8 C 79 % 1023,1 hPa 0,0 l/m 14,4 km/h (3 Bft) W-NW 292 -1,4 C -2,1 C
14.01.2012 17:42 1,8 C 79 % 1023,4 hPa 0,0 l/m 8,3 km/h (2 Bft) W-NW 292 -1,4 C -0,7 C
14.01.2012 17:47 1,7 C 79 % 1023,3 hPa 0,0 l/m 7,6 km/h (2 Bft) NW 315 -1,5 C -0,6 C
14.01.2012 17:52 1,6 C 79 % 1023,3 hPa 0,0 l/m 8,6 km/h (2 Bft) NW 315 -1,6 C -1,0 C
14.01.2012 17:57 1,6 C 79 % 1023,2 hPa 0,0 l/m 9,4 km/h (2 Bft) W-NW 292 -1,6 C -1,3 C
14.01.2012 18:02 1,5 C 79 % 1023,4 hPa 0,0 l/m 9,4 km/h (2 Bft) NW 315 -1,7 C -1,4 C
14.01.2012 18:07 1,4 C 80 % 1023,4 hPa 0,0 l/m 5,4 km/h (1 Bft) NW 315 -1,7 C -0,2 C
14.01.2012 18:12 1,3 C 80 % 1023,5 hPa 0,0 l/m 6,8 km/h (2 Bft) NW 315 -1,8 C -0,8 C
14.01.2012 18:17 1,3 C 80 % 1023,6 hPa 0,0 l/m 3,6 km/h (1 Bft) W-NW 292 -1,8 C 1,3 C
14.01.2012 18:22 1,3 C 80 % 1023,6 hPa 0,0 l/m 4,3 km/h (1 Bft) W 270 -1,8 C 1,3 C
14.01.2012 18:27 1,3 C 80 % 1023,5 hPa 0,0 l/m 3,6 km/h (1 Bft) W-NW 292 -1,8 C 1,3 C
14.01.2012 18:32 1,3 C 80 % 1023,7 hPa 0,0 l/m 4,3 km/h (1 Bft) W 270 -1,8 C 1,3 C
14.01.2012 18:37 1,3 C 80 % 1023,7 hPa 0,0 l/m 5,8 km/h (2 Bft) N-NW 337 -1,8 C -0,5 C
14.01.2012 18:42 1,2 C 80 % 1023,6 hPa 0,0 l/m 5,4 km/h (1 Bft) N-NW 337 -1,9 C -0,4 C
14.01.2012 18:47 1,1 C 80 % 1023,6 hPa 0,0 l/m 2,5 km/h (1 Bft) N-NO 22 -2,0 C 1,1 C
14.01.2012 18:52 1,1 C 80 % 1023,7 hPa 0,0 l/m 7,6 km/h (2 Bft) N-NW 337 -2,0 C -1,3 C
14.01.2012 18:57 1,1 C 81 % 1023,6 hPa 0,0 l/m 5,8 km/h (2 Bft) W 270 -1,8 C -0,7 C
14.01.2012 19:02 1,0 C 81 % 1023,6 hPa 0,0 l/m 6,5 km/h (2 Bft) W-NW 292 -1,9 C -1,1 C
14.01.2012 19:07 1,0 C 81 % 1023,7 hPa 0,0 l/m 3,6 km/h (1 Bft) N 360 -1,9 C 1,0 C
14.01.2012 19:12 1,0 C 81 % 1023,8 hPa 0,0 l/m 7,2 km/h (2 Bft) NW 315 -1,9 C -1,3 C
14.01.2012 19:17 1,0 C 81 % 1023,9 hPa 0,0 l/m 5,8 km/h (2 Bft) W-NW 292 -1,9 C -0,8 C
14.01.2012 19:22 1,0 C 81 % 1024,0 hPa 0,0 l/m 3,6 km/h (1 Bft) W-NW 292 -1,9 C 1,0 C
14.01.2012 19:27 1,1 C 81 % 1023,9 hPa 0,0 l/m 6,8 km/h (2 Bft) NW 315 -1,8 C -1,1 C
14.01.2012 19:32 1,0 C 81 % 1023,9 hPa 0,0 l/m 2,5 km/h (1 Bft) W-NW 292 -1,9 C 1,0 C
14.01.2012 19:37 1,0 C 81 % 1024,0 hPa 0,0 l/m 9,4 km/h (2 Bft) W-NW 292 -1,9 C -2,0 C
14.01.2012 19:42 1,0 C 81 % 1024,0 hPa 0,0 l/m 5,8 km/h (2 Bft) NW 315 -1,9 C -0,8 C
14.01.2012 19:47 1,0 C 81 % 1024,0 hPa 0,0 l/m 7,6 km/h (2 Bft) W-NW 292 -1,9 C -1,4 C
14.01.2012 19:52 0,9 C 81 % 1023,9 hPa 0,0 l/m 11,2 km/h (2 Bft) NW 315 -2,0 C -2,5 C
14.01.2012 19:57 0,9 C 81 % 1023,9 hPa 0,0 l/m 10,1 km/h (2 Bft) NW 315 -2,0 C -2,3 C
14.01.2012 20:02 0,9 C 81 % 1023,8 hPa 0,0 l/m 9,4 km/h (2 Bft) NW 315 -2,0 C -2,1 C
14.01.2012 20:07 0,9 C 81 % 1023,7 hPa 0,0 l/m 5,8 km/h (2 Bft) NW 315 -2,0 C -0,9 C
14.01.2012 20:12 0,8 C 81 % 1023,7 hPa 0,0 l/m 5,8 km/h (2 Bft) N-NW 337 -2,1 C -1,0 C
14.01.2012 20:17 0,8 C 81 % 1023,8 hPa 0,0 l/m 8,3 km/h (2 Bft) N-NW 337 -2,1 C -1,9 C
14.01.2012 20:22 0,7 C 81 % 1023,9 hPa 0,0 l/m 1,8 km/h (1 Bft) W-NW 292 -2,2 C 0,7 C
14.01.2012 20:27 0,7 C 81 % 1023,7 hPa 0,0 l/m 4,0 km/h (1 Bft) W-NW 292 -2,2 C 0,7 C
14.01.2012 20:32 0,6 C 81 % 1023,9 hPa 0,0 l/m 0,0 km/h (0 Bft) NW 315 -2,3 C 0,6 C
14.01.2012 20:37 0,6 C 82 % 1023,9 hPa 0,0 l/m 2,9 km/h (1 Bft) NW 315 -2,1 C 0,6 C
14.01.2012 20:42 0,5 C 82 % 1024,0 hPa 0,0 l/m 2,9 km/h (1 Bft) NW 315 -2,2 C 0,5 C
14.01.2012 20:47 0,5 C 82 % 1024,0 hPa 0,0 l/m 2,5 km/h (1 Bft) N 360 -2,2 C 0,5 C
14.01.2012 20:52 0,4 C 82 % 1024,0 hPa 0,0 l/m 6,1 km/h (2 Bft) W 270 -2,3 C -1,6 C
14.01.2012 20:57 0,4 C 82 % 1024,0 hPa 0,0 l/m 2,5 km/h (1 Bft) N-NW 337 -2,3 C 0,4 C
14.01.2012 21:02 0,4 C 82 % 1023,8 hPa 0,0 l/m 4,7 km/h (1 Bft) N 360 -2,3 C -1,0 C
14.01.2012 21:07 0,4 C 82 % 1023,9 hPa 0,0 l/m 9,4 km/h (2 Bft) NW 315 -2,3 C -2,7 C
14.01.2012 21:12 0,4 C 82 % 1023,9 hPa 0,0 l/m 6,5 km/h (2 Bft) NW 315 -2,3 C -1,8 C
14.01.2012 21:17 0,3 C 82 % 1023,9 hPa 0,0 l/m 3,6 km/h (1 Bft) N 360 -2,4 C 0,3 C
14.01.2012 21:22 0,3 C 83 % 1023,9 hPa 0,0 l/m 6,1 km/h (2 Bft) NW 315 -2,2 C -1,7 C
14.01.2012 21:27 0,3 C 83 % 1024,0 hPa 0,0 l/m 7,2 km/h (2 Bft) N-NO 22 -2,2 C -2,1 C
14.01.2012 21:32 0,3 C 83 % 1024,0 hPa 0,0 l/m 5,4 km/h (1 Bft) W 270 -2,2 C -1,4 C
14.01.2012 21:37 0,3 C 83 % 1024,0 hPa 0,0 l/m 1,8 km/h (1 Bft) W 270 -2,2 C 0,3 C
14.01.2012 21:42 0,3 C 83 % 1024,2 hPa 0,0 l/m 7,2 km/h (2 Bft) NW 315 -2,2 C -2,1 C
14.01.2012 21:47 0,3 C 83 % 1024,2 hPa 0,0 l/m 6,8 km/h (2 Bft) W-NW 292 -2,2 C -2,0 C
14.01.2012 21:52 0,2 C 83 % 1024,2 hPa 0,0 l/m 8,3 km/h (2 Bft) N-NW 337 -2,3 C -2,6 C
14.01.2012 21:57 0,2 C 83 % 1024,3 hPa 0,0 l/m 7,9 km/h (2 Bft) NW 315 -2,3 C -2,5 C
14.01.2012 22:02 0,1 C 84 % 1024,2 hPa 0,0 l/m 4,0 km/h (1 Bft) N-NW 337 -2,3 C 0,1 C
14.01.2012 22:07 0,1 C 84 % 1024,3 hPa 0,0 l/m 4,3 km/h (1 Bft) W-NW 292 -2,3 C 0,1 C
14.01.2012 22:12 0,1 C 84 % 1024,3 hPa 0,0 l/m 2,9 km/h (1 Bft) NO 45 -2,3 C 0,1 C
14.01.2012 22:17 0,1 C 84 % 1024,4 hPa 0,0 l/m 1,4 km/h (1 Bft) N 360 -2,3 C 0,1 C
14.01.2012 22:22 0,1 C 84 % 1024,3 hPa 0,0 l/m 3,2 km/h (1 Bft) N-NW 337 -2,3 C 0,1 C
14.01.2012 22:27 0,1 C 84 % 1024,3 hPa 0,0 l/m 0,0 km/h (0 Bft) NW 315 -2,3 C 0,1 C
14.01.2012 22:32 0,1 C 84 % 1024,2 hPa 0,0 l/m 1,1 km/h (1 Bft) W-NW 292 -2,3 C 0,1 C
14.01.2012 22:37 0,1 C 84 % 1024,4 hPa 0,0 l/m 2,5 km/h (1 Bft) W-NW 292 -2,3 C 0,1 C
14.01.2012 22:42 0,1 C 84 % 1024,4 hPa 0,0 l/m 2,2 km/h (1 Bft) W 270 -2,3 C 0,1 C
14.01.2012 22:47 0,1 C 84 % 1024,4 hPa 0,0 l/m 7,2 km/h (2 Bft) NW 315 -2,3 C -2,4 C
14.01.2012 22:52 0,1 C 84 % 1024,4 hPa 0,0 l/m 2,9 km/h (1 Bft) NW 315 -2,3 C 0,1 C
14.01.2012 22:57 0,1 C 84 % 1024,4 hPa 0,0 l/m 4,7 km/h (1 Bft) NW 315 -2,3 C -1,3 C
14.01.2012 23:02 0,0 C 84 % 1024,4 hPa 0,0 l/m 4,3 km/h (1 Bft) NW 315 -2,4 C 0,0 C
14.01.2012 23:07 -0,1 C 84 % 1024,6 hPa 0,0 l/m 6,1 km/h (2 Bft) NW 315 -2,5 C -2,2 C
14.01.2012 23:12 -0,1 C 85 % 1024,5 hPa 0,0 l/m 6,1 km/h (2 Bft) NW 315 -2,3 C -2,2 C
14.01.2012 23:17 -0,1 C 85 % 1024,6 hPa 0,0 l/m 1,4 km/h (1 Bft) N-NW 337 -2,3 C -0,1 C
14.01.2012 23:22 -0,1 C 85 % 1024,5 hPa 0,0 l/m 1,8 km/h (1 Bft) N-NO 22 -2,3 C -0,1 C
14.01.2012 23:27 -0,1 C 85 % 1024,6 hPa 0,0 l/m 3,6 km/h (1 Bft) W 270 -2,3 C -0,1 C
14.01.2012 23:32 -0,1 C 85 % 1024,6 hPa 0,0 l/m 4,3 km/h (1 Bft) NW 315 -2,3 C -0,1 C
14.01.2012 23:37 -0,2 C 85 % 1024,5 hPa 0,0 l/m 4,0 km/h (1 Bft) W-NW 292 -2,4 C -0,2 C
14.01.2012 23:42 -0,2 C 85 % 1024,5 hPa 0,0 l/m 3,6 km/h (1 Bft) N-NW 337 -2,4 C -0,2 C
14.01.2012 23:47 -0,2 C 85 % 1024,4 hPa 0,0 l/m 4,0 km/h (1 Bft) NW 315 -2,4 C -0,2 C
14.01.2012 23:52 -0,2 C 85 % 1024,6 hPa 0,0 l/m 4,3 km/h (1 Bft) NW 315 -2,4 C -0,2 C
14.01.2012 23:57 -0,2 C 85 % 1024,7 hPa 0,0 l/m 2,5 km/h (1 Bft) W-NW 292 -2,4 C -0,2 C
_ Min-Zeit 23:37 14:37 00:07 - 04:32 - - 23:07 09:17
Minimum _ -0,2 C 71 % 1018,4 hPa - 0,0 km/h (0 Bft) - - -2,5 C -3,7 C
_ Max-Zeit 13:37 05:37 23:57 00:02 01:57 - - 00:37 13:17
Maximum _ 3,9 C 85 % 1024,7 hPa 0,0 l/m 24,1 km/h
NW (4 Bft)
- - 0,2 C 3,8 C
Durchschnitt _ 1,7 C 81 % 1022,1 hPa #0,0 l/m 8,3 km/h (2 Bft) NW - -1,2 C -0,4 C
(c) by David Heller